Time;durP1;ratioP1;P1;durP2;ratioP2;P2;SDS_P1;SDS_P2;PMS_P1;PMS_P2;Temp;Humidity;BMP_temperature;BMP_pressure;BME280_temperature;BME280_humidity;BME280_pressure;Samples;Min_cycle;Max_cycle;Signal;HPM_P1;HPM_P2
2022/06/08 00:00:01;;;;;;;8.53;4.03;;;;;;;;;;5092504;28;20305;-79
2022/06/08 00:02:32;;;;;;;9.30;4.87;;;11.70;99.90;;;;;;5092970;28;20361;-79
2022/06/08 00:04:57;;;;;;;10.80;4.50;;;11.60;99.90;;;;;;5092573;28;20331;-79
2022/06/08 00:07:23;;;;;;;8.87;4.33;;;11.60;99.90;;;;;;5092625;28;20283;-79
2022/06/08 00:09:49;;;;;;;13.80;5.50;;;11.50;99.90;;;;;;5092491;28;20040;-79
2022/06/08 00:12:14;;;;;;;9.57;4.67;;;11.50;99.90;;;;;;5092624;28;20135;-79
2022/06/08 00:14:41;;;;;;;9.43;4.30;;;11.50;99.90;;;;;;5092461;28;20199;-79
2022/06/08 00:17:07;;;;;;;7.67;4.50;;;11.50;99.90;;;;;;5095532;28;20043;-79
2022/06/08 00:19:33;;;;;;;8.43;4.30;;;11.50;99.90;;;;;;5097224;28;20294;-79
2022/06/08 00:21:59;;;;;;;9.40;4.63;;;11.50;99.90;;;;;;5097504;28;20282;-79
2022/06/08 00:24:25;;;;;;;11.30;5.30;;;11.40;99.90;;;;;;5096565;28;20270;-79
2022/06/08 00:26:51;;;;;;;11.47;5.23;;;11.40;99.90;;;;;;5096880;28;20284;-79
2022/06/08 00:29:17;;;;;;;11.30;5.00;;;11.40;99.90;;;;;;5078588;28;20070;-79
2022/06/08 00:31:43;;;;;;;11.70;5.20;;;11.40;99.90;;;;;;5096577;28;20055;-79
2022/06/08 00:34:08;;;;;;;9.57;4.80;;;11.40;99.90;;;;;;5096251;28;20282;-79
2022/06/08 00:36:34;;;;;;;8.60;5.00;;;11.40;99.90;;;;;;5096275;28;20051;-79
2022/06/08 00:39:00;;;;;;;11.47;5.70;;;;;;;;;;5096098;28;20186;-79
2022/06/08 00:41:43;;;;;;;10.60;6.00;;;11.40;99.90;;;;;;5096423;28;20052;-79
2022/06/08 00:44:30;;;;;;;11.90;5.00;;;11.40;99.90;;;;;;5096131;28;20743;-79
2022/06/08 00:46:56;;;;;;;12.10;6.10;;;11.40;99.90;;;;;;5096373;28;20281;-79
2022/06/08 00:49:27;;;;;;;12.83;5.70;;;11.30;99.90;;;;;;5095698;28;20274;-79
2022/06/08 00:51:53;;;;;;;11.80;5.50;;;11.30;99.90;;;;;;5096014;28;20843;-79
2022/06/08 00:54:28;;;;;;;11.70;4.80;;;11.30;99.90;;;;;;5095885;28;20289;-79
2022/06/08 00:56:56;;;;;;;;;;;11.30;99.90;;;;;;5096794;28;20282;-79
2022/06/08 00:59:22;;;;;;;9.00;5.47;;;11.30;99.90;;;;;;5095617;28;19920;-79
2022/06/08 01:01:48;;;;;;;10.17;5.37;;;11.30;99.90;;;;;;5095844;28;20304;-79
2022/06/08 01:04:19;;;;;;;10.03;5.17;;;11.30;99.90;;;;;;5095378;28;20289;-79
2022/06/08 01:06:51;;;;;;;13.23;6.23;;;11.20;99.90;;;;;;5095916;28;20051;-79
2022/06/08 01:09:31;;;;;;;9.23;5.57;;;11.20;99.90;;;;;;5077751;28;20285;-79
2022/06/08 01:12:00;;;;;;;11.60;5.53;;;11.20;99.90;;;;;;5095943;28;20323;-79
2022/06/08 01:14:27;;;;;;;8.90;5.20;;;11.20;99.90;;;;;;5095297;28;20335;-79
2022/06/08 01:16:58;;;;;;;9.70;5.20;;;11.20;99.90;;;;;;5096020;28;20274;-79
2022/06/08 01:19:25;;;;;;;9.43;5.30;;;11.20;99.90;;;;;;5095434;28;20298;-79
2022/06/08 01:21:57;;;;;;;10.53;5.60;;;11.20;99.90;;;;;;5095552;28;20310;-79
2022/06/08 01:24:24;;;;;;;11.50;6.03;;;11.20;99.90;;;;;;5095417;28;20275;-79
2022/06/08 01:27:01;;;;;;;8.40;5.20;;;11.20;99.90;;;;;;5095201;28;20282;-79
2022/06/08 01:29:53;;;;;;;10.40;5.70;;;11.20;99.90;;;;;;5094725;28;20278;-79
2022/06/08 01:32:44;;;;;;;10.97;6.00;;;11.30;99.90;;;;;;5095146;28;20290;-79
2022/06/08 01:35:26;;;;;;;12.43;5.80;;;11.30;99.90;;;;;;5073488;28;20766;-79
2022/06/08 01:38:10;;;;;;;11.50;5.90;;;11.30;99.90;;;;;;5095417;28;20770;-79
2022/06/08 01:41:01;;;;;;;10.17;6.27;;;11.20;99.90;;;;;;5077186;28;20318;-79
2022/06/08 01:43:29;;;;;;;12.17;6.93;;;11.30;99.90;;;;;;5094888;28;20365;-80
2022/06/08 01:46:28;;;;;;;13.07;6.97;;;11.40;99.90;;;;;;5094960;28;20699;-79
2022/06/08 01:49:11;;;;;;;11.57;7.50;;;11.40;99.90;;;;;;5095130;28;20274;-80
2022/06/08 01:52:07;;;;;;;11.83;8.07;;;11.40;99.90;;;;;;5095111;28;20293;-79
2022/06/08 01:55:00;;;;;;;14.73;8.20;;;11.40;99.90;;;;;;5094508;28;20363;-78
2022/06/08 01:57:55;;;;;;;13.77;7.97;;;11.40;99.90;;;;;;5094705;28;20317;-78
2022/06/08 02:00:25;;;;;;;13.97;7.30;;;11.40;99.90;;;;;;5094363;28;20360;-79
2022/06/08 02:03:01;;;;;;;13.97;8.37;;;11.40;99.90;;;;;;5076849;28;20343;-78
2022/06/08 02:05:32;;;;;;;12.47;7.90;;;11.30;99.90;;;;;;5094585;28;20282;-79
2022/06/08 02:08:12;;;;;;;12.20;8.53;;;11.30;99.90;;;;;;5094744;28;20286;-79
2022/06/08 02:10:48;;;;;;;12.67;7.77;;;11.30;99.90;;;;;;5094375;28;20305;-79
2022/06/08 02:13:37;;;;;;;12.07;8.80;;;11.30;99.90;;;;;;5094552;28;20279;-79
2022/06/08 02:16:16;;;;;;;13.03;9.10;;;11.30;99.90;;;;;;5076712;28;20336;-79
2022/06/08 02:18:56;;;;;;;12.90;8.47;;;11.30;99.90;;;;;;5094558;28;20290;-79
2022/06/08 02:21:36;;;;;;;17.30;8.57;;;11.30;99.90;;;;;;5094070;28;20275;-78
2022/06/08 02:24:28;;;;;;;13.53;8.67;;;11.40;99.90;;;;;;5094442;28;20321;-78
2022/06/08 02:26:59;;;;;;;14.90;8.67;;;11.40;99.90;;;;;;5089453;28;20298;-79
2022/06/08 02:29:47;;;;;;;14.27;9.70;;;11.40;99.90;;;;;;5093973;28;20776;-79
2022/06/08 02:35:19;;;;;;;16.17;10.47;;;11.50;99.90;;;;;;5093968;28;20772;-78
2022/06/08 02:37:48;;;;;;;20.37;9.80;;;11.50;99.90;;;;;;5093916;28;20658;-78
2022/06/08 02:40:26;;;;;;;14.27;10.40;;;11.50;99.90;;;;;;5093968;28;20310;-79
2022/06/08 02:42:57;;;;;;;15.23;9.80;;;11.50;99.90;;;;;;5094124;28;20274;-79
2022/06/08 02:45:30;;;;;;;19.53;11.97;;;11.50;99.90;;;;;;5075930;28;20286;-78
2022/06/08 02:48:02;;;;;;;15.33;10.93;;;11.40;99.90;;;;;;5093960;28;20343;-79
2022/06/08 02:50:29;;;;;;;21.90;12.27;;;11.50;99.90;;;;;;5093432;28;20757;-79
2022/06/08 02:53:30;;;;;;;19.23;12.83;;;11.40;99.90;;;;;;5093945;28;20340;-79
2022/06/08 02:56:08;;;;;;;17.40;12.10;;;11.50;99.90;;;;;;5086384;28;20650;-79
2022/06/08 02:58:48;;;;;;;16.37;12.73;;;11.40;99.90;;;;;;5093222;28;20343;-79
2022/06/08 03:01:25;;;;;;;19.17;13.27;;;11.40;99.90;;;;;;5093847;28;20286;-79
2022/06/08 03:03:56;;;;;;;22.10;13.40;;;11.30;99.90;;;;;;5093647;28;20361;-79
2022/06/08 03:06:33;;;;;;;21.03;12.43;;;11.30;99.90;;;;;;5093395;28;20327;-79
2022/06/08 03:09:02;;;;;;;21.47;14.07;;;11.30;99.90;;;;;;5093435;28;20286;-79
2022/06/08 03:11:35;;;;;;;16.73;12.63;;;11.40;99.90;;;;;;5093032;28;20282;-79
2022/06/08 03:14:13;;;;;;;16.53;12.13;;;11.30;99.90;;;;;;5093880;28;20275;-79
2022/06/08 03:16:42;;;;;;;16.70;13.00;;;11.40;99.90;;;;;;5093236;28;20759;-79
2022/06/08 03:19:09;;;;;;;19.57;13.00;;;11.40;99.90;;;;;;5093274;28;20294;-79
2022/06/08 03:21:36;;;;;;;17.90;13.37;;;11.30;99.90;;;;;;5092941;28;20274;-79
2022/06/08 03:24:03;;;;;;;18.17;13.27;;;11.40;99.90;;;;;;5093130;28;20274;-79
2022/06/08 03:26:37;;;;;;;18.33;12.87;;;11.30;99.90;;;;;;5092866;28;20282;-78
2022/06/08 03:29:03;;;;;;;16.30;13.10;;;11.30;99.90;;;;;;5075499;28;20809;-79
2022/06/08 03:31:29;;;;;;;16.37;12.43;;;11.40;99.90;;;;;;5058410;28;20056;-79
2022/06/08 03:33:55;;;;;;;17.53;13.13;;;11.40;99.90;;;;;;5075257;28;20442;-78
2022/06/08 03:36:20;;;;;;;17.30;12.63;;;11.50;99.90;;;;;;5092702;28;20316;-78
2022/06/08 03:38:46;;;;;;;22.30;13.73;;;11.50;99.90;;;;;;5092819;28;20106;-78
2022/06/08 03:41:12;;;;;;;17.00;12.63;;;11.60;99.90;;;;;;5075490;28;20552;-79
2022/06/08 03:43:38;;;;;;;17.00;12.57;;;11.60;99.90;;;;;;5075057;28;20040;-78
2022/06/08 03:46:06;;;;;;;18.67;14.10;;;11.70;99.90;;;;;;5092978;28;20073;-80
2022/06/08 03:48:33;;;;;;;21.27;14.20;;;11.70;99.90;;;;;;5092625;28;20282;-79
2022/06/08 03:50:59;;;;;;;20.30;14.97;;;11.80;99.90;;;;;;5092374;28;20377;-79
2022/06/08 03:53:31;;;;;;;15.83;12.60;;;11.80;99.90;;;;;;5092791;28;20282;-79
2022/06/08 03:56:00;;;;;;;18.77;13.50;;;11.90;99.90;;;;;;5058553;28;20298;-79
2022/06/08 03:58:26;;;;;;;18.00;14.27;;;11.90;99.90;;;;;;5092534;28;20310;-78
2022/06/08 04:00:53;;;;;;;20.13;14.27;;;12.00;99.90;;;;;;5092892;28;20808;-79
2022/06/08 04:03:19;;;;;;;19.63;13.90;;;12.00;99.90;;;;;;5074811;28;20047;-79
2022/06/08 04:05:44;;;;;;;18.87;13.93;;;12.10;99.90;;;;;;5092342;28;20286;-79
2022/06/08 04:08:10;;;;;;;17.30;13.93;;;12.10;99.90;;;;;;5093057;28;20282;-79
2022/06/08 04:10:36;;;;;;;22.23;14.60;;;;;;;;;;5092463;28;20051;-79
2022/06/08 04:13:02;;;;;;;20.37;14.77;;;12.30;99.90;;;;;;5074940;28;20097;-79
2022/06/08 04:15:43;;;;;;;21.73;14.70;;;12.30;99.90;;;;;;5092401;28;20286;-79
2022/06/08 04:18:21;;;;;;;21.30;14.27;;;12.40;99.90;;;;;;5092658;28;20101;-79
2022/06/08 04:20:49;;;;;;;20.73;16.40;;;12.40;99.90;;;;;;5092473;28;20283;-79
2022/06/08 04:23:17;;;;;;;20.00;15.03;;;12.40;99.90;;;;;;5092722;28;20282;-79
2022/06/08 04:25:43;;;;;;;20.87;15.80;;;12.50;99.90;;;;;;5092367;28;20712;-79
2022/06/08 04:28:09;;;;;;;19.33;15.80;;;12.40;99.90;;;;;;5092469;28;20339;-79
2022/06/08 04:30:36;;;;;;;19.17;14.63;;;12.50;99.90;;;;;;5092039;28;20864;-79
2022/06/08 04:33:03;;;;;;;21.07;17.30;;;12.50;99.90;;;;;;5074813;28;20343;-79
2022/06/08 04:35:29;;;;;;;21.00;15.50;;;12.50;99.90;;;;;;5074869;28;20578;-79
2022/06/08 04:37:55;;;;;;;19.60;15.80;;;12.60;99.90;;;;;;5092476;28;20340;-79
2022/06/08 04:40:21;;;;;;;21.93;15.53;;;12.60;99.90;;;;;;5092520;28;20655;-79
2022/06/08 04:42:48;;;;;;;21.83;15.80;;;12.70;99.90;;;;;;5074145;28;20044;-79
2022/06/08 04:45:14;;;;;;;23.10;16.93;;;12.70;99.90;;;;;;5074490;28;20343;-79
2022/06/08 04:47:40;;;;;;;20.57;15.40;;;12.80;99.90;;;;;;5092194;28;20754;-79
2022/06/08 04:50:07;;;;;;;21.80;17.37;;;12.80;99.90;;;;;;5092173;28;20056;-79
2022/06/08 04:52:34;;;;;;;26.47;17.13;;;12.90;99.90;;;;;;5091780;28;20289;-79
2022/06/08 04:55:00;;;;;;;26.97;16.07;;;12.90;99.90;;;;;;5092450;28;20286;-79
2022/06/08 04:57:27;;;;;;;19.13;16.43;;;;;;;;;;5074281;28;20634;-79
2022/06/08 04:59:52;;;;;;;22.97;15.30;;;13.10;99.90;;;;;;5091741;28;20052;-79
2022/06/08 05:05:06;;;;;;;21.47;16.43;;;13.10;99.90;;;;;;5096200;28;20399;-79
2022/06/08 05:07:32;;;;;;;18.50;16.37;;;13.20;99.90;;;;;;5095885;28;20285;-79
2022/06/08 05:09:57;;;;;;;21.93;18.03;;;13.20;99.90;;;;;;5095441;28;20278;-79
2022/06/08 05:12:23;;;;;;;21.93;16.60;;;13.20;99.90;;;;;;5095523;28;20044;-79
2022/06/08 05:14:49;;;;;;;23.60;15.10;;;13.20;99.90;;;;;;5095377;28;20065;-79
2022/06/08 05:17:15;;;;;;;22.60;17.13;;;13.30;99.90;;;;;;5095806;28;20040;-79
2022/06/08 05:19:40;;;;;;;20.93;15.53;;;13.40;99.90;;;;;;5095273;28;20484;-79
2022/06/08 05:22:06;;;;;;;22.03;16.23;;;13.60;99.90;;;;;;5077416;28;20101;-79
2022/06/08 05:24:32;;;;;;;19.80;16.70;;;;;;;;;;5095449;28;20054;-79
2022/06/08 05:26:58;;;;;;;20.73;16.37;;;;;;;;;;5095088;28;20052;-79
2022/06/08 05:29:24;;;;;;;22.77;16.17;;;;;;;;;;5095538;28;20286;-79
2022/06/08 05:31:50;;;;;;;18.33;14.90;;;14.30;99.90;;;;;;5095190;28;20282;-79
2022/06/08 05:34:15;;;;;;;19.60;16.03;;;14.40;99.90;;;;;;5095154;28;20339;-79
2022/06/08 05:36:42;;;;;;;17.97;14.60;;;14.50;99.90;;;;;;5094676;28;20088;-79
2022/06/08 05:39:08;;;;;;;17.40;15.60;;;14.60;99.90;;;;;;5095225;28;20381;-80
2022/06/08 05:41:34;;;;;;;18.67;14.93;;;14.60;99.90;;;;;;5094930;28;20369;-80
2022/06/08 05:44:00;;;;;;;20.87;15.47;;;14.70;99.90;;;;;;5095170;28;20044;-80
2022/06/08 05:46:25;;;;;;;17.70;14.20;;;14.90;99.90;;;;;;5077248;28;20044;-80
2022/06/08 05:48:51;;;;;;;18.23;14.50;;;15.10;99.90;;;;;;5094762;28;20044;-79
2022/06/08 05:51:17;;;;;;;18.20;13.70;;;15.20;99.90;;;;;;5094966;28;20048;-80
2022/06/08 05:53:44;;;;;;;19.63;13.83;;;15.30;99.90;;;;;;5094741;28;20040;-79
2022/06/08 05:56:10;;;;;;;19.80;15.17;;;15.30;99.90;;;;;;5076954;28;20059;-79
2022/06/08 05:58:36;;;;;;;18.63;13.87;;;15.30;99.90;;;;;;5094908;28;20278;-79
2022/06/08 06:01:02;;;;;;;19.20;13.77;;;15.30;99.90;;;;;;5094593;28;20044;-79
2022/06/08 06:03:27;;;;;;;18.00;13.90;;;15.40;99.90;;;;;;5094768;28;20090;-79
2022/06/08 06:05:53;;;;;;;19.97;14.90;;;15.50;99.90;;;;;;5094447;28;20479;-79
2022/06/08 06:08:19;;;;;;;19.07;13.43;;;;;;;;;;5094556;28;20044;-80
2022/06/08 06:10:46;;;;;;;17.80;13.83;;;;;;;;;;5094095;28;20054;-79
2022/06/08 06:13:13;;;;;;;18.93;13.50;;;;;;;;;;5094398;28;20043;-80
2022/06/08 06:15:39;;;;;;;17.27;13.93;;;;;;;;;;5094471;28;20084;-80
2022/06/08 06:18:06;;;;;;;13.80;11.10;;;16.20;99.90;;;;;;5076523;28;20093;-79
2022/06/08 06:20:32;;;;;;;14.10;12.27;;;16.20;99.90;;;;;;5094347;28;20205;-79
2022/06/08 06:22:58;;;;;;;16.40;13.10;;;16.20;99.90;;;;;;5093989;28;20146;-79
2022/06/08 06:25:25;;;;;;;16.93;12.87;;;;;;;;;;5094249;28;20052;-80
2022/06/08 06:27:51;;;;;;;18.20;12.87;;;;;;;;;;5076299;28;20361;-80
2022/06/08 06:30:17;;;;;;;16.67;13.30;;;16.50;99.90;;;;;;5094296;28;20044;-80
2022/06/08 06:32:45;;;;;;;16.43;12.43;;;16.60;99.90;;;;;;5093893;28;20056;-79
2022/06/08 06:35:23;;;;;;;14.80;12.37;;;16.50;99.90;;;;;;5094002;28;20055;-80
2022/06/08 06:37:50;;;;;;;13.63;12.23;;;16.50;99.90;;;;;;5075767;28;20059;-79
2022/06/08 06:40:16;;;;;;;16.57;11.90;;;16.40;99.90;;;;;;5094064;28;20490;-79
2022/06/08 06:42:42;;;;;;;17.90;12.77;;;16.30;99.90;;;;;;5094084;28;20093;-80
2022/06/08 06:45:09;;;;;;;16.00;13.30;;;16.20;99.90;;;;;;5093569;28;20617;-79
2022/06/08 06:47:35;;;;;;;14.87;12.67;;;16.20;99.90;;;;;;5093855;28;20146;-79
2022/06/08 06:50:02;;;;;;;15.93;12.80;;;16.10;99.90;;;;;;5093617;28;20130;-79
2022/06/08 06:52:28;;;;;;;18.13;11.60;;;16.10;99.90;;;;;;5093622;28;20054;-79
2022/06/08 06:54:53;;;;;;;14.70;11.93;;;16.10;99.90;;;;;;5093628;28;20096;-79
2022/06/08 06:57:19;;;;;;;15.07;13.47;;;16.00;99.90;;;;;;5075599;28;20048;-79
2022/06/08 06:59:45;;;;;;;15.93;13.07;;;16.00;99.90;;;;;;5075653;28;20036;-79
2022/06/08 07:02:17;;;;;;;15.83;13.30;;;16.00;99.90;;;;;;5093560;28;20055;-80
2022/06/08 07:04:42;;;;;;;14.20;12.70;;;16.00;99.90;;;;;;5075587;28;20092;-80
2022/06/08 07:07:09;;;;;;;13.60;12.20;;;16.00;99.90;;;;;;5075071;28;20155;-79
2022/06/08 07:09:35;;;;;;;18.33;13.47;;;16.00;99.90;;;;;;5093597;28;20044;-79
2022/06/08 07:12:01;;;;;;;14.77;12.97;;;15.90;99.90;;;;;;5093313;28;20054;-79
2022/06/08 07:14:28;;;;;;;17.23;12.73;;;15.90;99.90;;;;;;5093457;28;20043;-79
2022/06/08 07:16:54;;;;;;;15.93;12.57;;;15.90;99.90;;;;;;5093100;28;20040;-79
2022/06/08 07:19:21;;;;;;;14.47;12.60;;;15.90;99.90;;;;;;5093127;28;20044;-80
2022/06/08 07:21:46;;;;;;;15.40;11.77;;;15.90;99.90;;;;;;5093223;28;20463;-80
2022/06/08 07:24:19;;;;;;;15.57;12.43;;;15.90;99.90;;;;;;5093069;28;20079;-76
2022/06/08 07:26:44;;;;;;;15.03;12.37;;;15.90;99.90;;;;;;5092618;28;20044;-76
2022/06/08 07:29:10;;;;;;;15.60;11.53;;;16.00;99.90;;;;;;5092886;28;20069;-76
2022/06/08 07:31:36;;;;;;;13.60;10.90;;;16.20;99.90;;;;;;5093087;28;20087;-76
2022/06/08 07:34:02;;;;;;;16.00;10.90;;;16.30;99.90;;;;;;5092593;28;20052;-76
2022/06/08 07:36:28;;;;;;;13.27;10.43;;;16.50;99.90;;;;;;5075178;28;20044;-76
2022/06/08 07:38:53;;;;;;;13.30;10.20;;;16.60;99.90;;;;;;5092803;28;20515;-77
2022/06/08 07:41:19;;;;;;;11.97;10.47;;;16.70;99.90;;;;;;5093072;28;20077;-76
2022/06/08 07:43:45;;;;;;;12.77;10.73;;;16.80;99.90;;;;;;5092970;28;20054;-76
2022/06/08 07:46:10;;;;;;;12.33;9.70;;;17.00;99.90;;;;;;5092583;28;20048;-76
2022/06/08 07:51:21;;;;;;;12.30;8.83;;;17.00;99.90;;;;;;5092769;28;20044;-76
2022/06/08 07:53:46;;;;;;;10.07;8.23;;;17.20;99.90;;;;;;5092781;28;20048;-76
2022/06/08 07:56:12;;;;;;;12.27;7.40;;;;;;;;;;5092482;28;20044;-76
2022/06/08 07:58:39;;;;;;;10.20;7.87;;;;;;;;;;5092730;28;20044;-76
2022/06/08 08:01:06;;;;;;;10.23;6.87;;;;;;;;;;5092361;28;20048;-76
2022/06/08 08:03:32;;;;;;;9.70;7.00;;;19.10;99.90;;;;;;5093170;28;20052;-76
2022/06/08 08:05:58;;;;;;;8.20;6.30;;;19.10;99.90;;;;;;5074719;28;20039;-76
2022/06/08 08:08:24;;;;;;;8.03;6.23;;;19.20;99.90;;;;;;5092941;28;20408;-76
2022/06/08 08:10:49;;;;;;;9.13;7.13;;;19.10;99.90;;;;;;5092764;28;20389;-76
2022/06/08 08:13:15;;;;;;;9.53;6.57;;;18.90;99.90;;;;;;5092413;28;20139;-77
2022/06/08 08:15:42;;;;;;;8.10;6.20;;;18.80;99.90;;;;;;5092689;28;20037;-77
2022/06/08 08:18:08;;;;;;;8.37;5.73;;;18.80;99.90;;;;;;5092198;28;20105;-77
2022/06/08 08:20:35;;;;;;;9.03;5.90;;;18.70;99.90;;;;;;5092695;28;20044;-77
2022/06/08 08:23:01;;;;;;;10.67;6.30;;;18.70;99.90;;;;;;5092382;28;20036;-77
2022/06/08 08:25:27;;;;;;;7.50;4.97;;;18.70;99.90;;;;;;5092689;28;20048;-77
2022/06/08 08:27:54;;;;;;;7.27;5.00;;;18.70;99.90;;;;;;5092684;28;20087;-77
2022/06/08 08:30:24;;;;;;;7.70;4.97;;;18.80;99.90;;;;;;5092140;28;20381;-77
2022/06/08 08:32:50;;;;;;;8.17;5.27;;;18.80;99.90;;;;;;5092502;28;20070;-77
2022/06/08 08:35:16;;;;;;;10.13;4.60;;;19.00;99.90;;;;;;5074468;28;20079;-79
2022/06/08 08:37:44;;;;;;;6.47;4.13;;;19.10;99.90;;;;;;5076472;28;20091;-78
2022/06/08 08:40:29;;;;;;;6.37;4.03;;;19.20;99.90;;;;;;5077957;28;20040;-78
2022/06/08 08:42:57;;;;;;;6.73;4.20;;;19.30;99.90;;;;;;5096305;28;20127;-79
2022/06/08 08:45:23;;;;;;;8.07;3.63;;;19.40;99.90;;;;;;5096155;28;20048;-77
2022/06/08 08:48:04;;;;;;;6.27;4.00;;;19.50;99.90;;;;;;5078760;28;20052;-78
2022/06/08 08:50:53;;;;;;;6.13;3.50;;;19.60;99.90;;;;;;5096643;28;20087;-78
2022/06/08 08:53:32;;;;;;;6.37;3.63;;;19.90;99.90;;;;;;5061396;28;20048;-78
2022/06/08 08:56:08;;;;;;;5.93;3.93;;;20.00;99.90;;;;;;5096342;28;20052;-79
2022/06/08 08:58:40;;;;;;;6.00;3.93;;;20.10;99.90;;;;;;5096390;28;20044;-77
2022/06/08 09:01:12;;;;;;;6.27;4.17;;;;;;;;;;5095690;28;20079;-78
2022/06/08 09:03:42;;;;;;;7.03;3.43;;;20.40;99.90;;;;;;5095907;28;20044;-77
2022/06/08 09:06:23;;;;;;;4.90;2.57;;;20.50;99.90;;;;;;5078068;28;20071;-77
2022/06/08 09:08:52;;;;;;;6.90;3.00;;;20.50;99.90;;;;;;5096036;28;20138;-77
2022/06/08 09:11:22;;;;;;;5.43;3.30;;;20.40;99.90;;;;;;5095730;28;20051;-77
2022/06/08 09:13:57;;;;;;;6.70;3.27;;;20.20;99.90;;;;;;5095892;28;20044;-76
2022/06/08 09:16:39;;;;;;;;;;;20.00;99.90;;;;;;5095781;28;20567;-77
2022/06/08 09:19:30;;;;;;;4.80;2.80;;;19.80;99.90;;;;;;5094707;28;20371;-79
2022/06/08 09:22:02;;;;;;;5.57;3.00;;;19.60;99.90;;;;;;5093558;28;20040;-85
2022/06/08 09:24:36;;;;;;;5.50;2.90;;;19.40;99.90;;;;;;5094873;28;20070;-86
2022/06/08 09:27:33;;;;;;;5.20;2.70;;;19.40;99.90;;;;;;5077498;28;20051;-87
2022/06/08 09:30:11;;;;;;;5.43;2.60;;;19.40;99.90;;;;;;5095050;28;20051;-86
2022/06/08 09:32:45;;;;;;;4.60;2.70;;;19.50;99.90;;;;;;5093479;28;20055;-83
2022/06/08 09:35:29;;;;;;;5.90;3.10;;;19.70;99.90;;;;;;5092480;28;20055;-87
2022/06/08 09:38:00;;;;;;;6.00;3.30;;;19.80;99.90;;;;;;5092921;28;20514;-87
2022/06/08 09:40:41;;;;;;;4.33;2.87;;;19.90;99.90;;;;;;5094451;28;20547;-87
2022/06/08 09:43:23;;;;;;;6.97;3.33;;;20.00;99.90;;;;;;5076599;28;20044;-82
2022/06/08 09:46:01;;;;;;;7.80;3.17;;;19.90;99.90;;;;;;5095306;28;20109;-80
2022/06/08 09:51:41;;;;;;;5.60;2.90;;;19.80;99.90;;;;;;5094839;28;20083;-79
2022/06/08 09:54:23;;;;;;;6.43;2.70;;;19.80;99.90;;;;;;5095307;28;20396;-83
2022/06/08 09:56:54;;;;;;;4.67;2.47;;;20.00;99.90;;;;;;5077036;28;20483;-80
2022/06/08 09:59:40;;;;;;;4.30;2.50;;;20.20;99.90;;;;;;5094502;28;20077;-85
2022/06/08 10:02:37;;;;;;;4.93;3.03;;;20.40;99.90;;;;;;5094852;28;20063;-85
2022/06/08 10:05:27;;;;;;;5.53;2.77;;;20.50;99.90;;;;;;5095168;28;20051;-80
2022/06/08 10:08:13;;;;;;;5.63;3.00;;;20.50;99.90;;;;;;5094780;28;20055;-77
2022/06/08 10:10:44;;;;;;;5.97;3.30;;;20.60;99.90;;;;;;5076620;28;20165;-77
2022/06/08 10:13:26;;;;;;;6.10;3.40;;;20.70;99.90;;;;;;5084084;28;20481;-77
2022/06/08 10:15:59;;;;;;;5.70;3.27;;;20.60;99.90;;;;;;5080017;28;20044;-75
2022/06/08 10:18:35;;;;;;;5.40;3.17;;;20.60;99.90;;;;;;5063906;28;20044;-76
2022/06/08 10:21:09;;;;;;;5.87;3.50;;;20.50;99.90;;;;;;5092788;28;20048;-74
2022/06/08 10:23:39;;;;;;;5.40;3.20;;;20.40;99.90;;;;;;5093907;28;20051;-75
2022/06/08 10:26:20;;;;;;;6.80;4.10;;;20.40;99.90;;;;;;5093876;28;20044;-72
2022/06/08 10:29:08;;;;;;;7.40;3.47;;;20.30;99.90;;;;;;5093774;28;20134;-77
2022/06/08 10:31:44;;;;;;;7.27;4.10;;;20.20;99.90;;;;;;5080817;28;20066;-75
2022/06/08 10:34:27;;;;;;;7.03;3.87;;;20.10;99.90;;;;;;5093559;28;20075;-75
2022/06/08 10:36:58;;;;;;;7.13;4.13;;;19.90;99.90;;;;;;5055886;28;20518;-76
2022/06/08 10:39:27;;;;;;;7.00;5.37;;;19.80;99.90;;;;;;5073498;28;20083;-75
2022/06/08 10:44:53;;;;;;;9.37;6.80;;;19.20;99.90;;;;;;5073850;28;20088;-73
2022/06/08 10:47:37;;;;;;;14.17;8.23;;;18.90;99.90;;;;;;5073452;28;20091;-80
2022/06/08 10:50:05;;;;;;;10.67;8.33;;;18.70;99.90;;;;;;5073588;28;20080;-79
2022/06/08 10:52:42;;;;;;;10.07;8.27;;;18.50;99.90;;;;;;5055414;28;20630;-80
2022/06/08 10:55:14;;;;;;;11.23;7.77;;;18.50;99.90;;;;;;5073683;28;20044;-80
2022/06/08 10:57:52;;;;;;;10.77;7.67;;;18.30;99.90;;;;;;5073527;28;20080;-80
2022/06/08 11:00:21;;;;;;;8.20;6.53;;;18.30;99.90;;;;;;5073178;28;20048;-79
2022/06/08 11:02:46;;;;;;;9.20;6.87;;;18.30;99.90;;;;;;5073543;28;20420;-79
2022/06/08 11:05:35;;;;;;;9.60;6.83;;;18.30;99.90;;;;;;5073485;28;20053;-79
2022/06/08 11:08:01;;;;;;;9.17;6.43;;;18.30;99.90;;;;;;5073789;28;20090;-79
2022/06/08 11:10:44;;;;;;;10.77;7.53;;;18.30;99.90;;;;;;5073052;28;20535;-73
2022/06/08 11:13:24;;;;;;;9.73;6.57;;;18.30;99.90;;;;;;5073093;28;20415;-79
2022/06/08 11:15:53;;;;;;;10.63;7.70;;;18.30;99.90;;;;;;5073273;28;20044;-80
2022/06/08 11:18:55;;;;;;;10.77;7.57;;;18.20;99.90;;;;;;5072904;28;20055;-78
2022/06/08 11:21:54;;;;;;;11.30;7.73;;;18.20;99.90;;;;;;5072690;28;20101;-78
2022/06/08 11:24:35;;;;;;;9.37;7.10;;;;;;;;;;5073100;28;20078;-77
2022/06/08 11:27:01;;;;;;;10.27;7.37;;;18.10;99.90;;;;;;5073074;28;20131;-77
2022/06/08 11:29:29;;;;;;;9.27;7.47;;;18.10;99.90;;;;;;5072752;28;20148;-79
2022/06/08 11:31:56;;;;;;;10.67;8.00;;;18.00;99.90;;;;;;5055038;28;20056;-78
2022/06/08 11:34:34;;;;;;;9.47;7.40;;;18.00;99.90;;;;;;5072762;28;20090;-78
2022/06/08 11:37:18;;;;;;;10.10;7.77;;;18.00;99.90;;;;;;5073159;28;20456;-80
2022/06/08 11:40:01;;;;;;;11.23;7.20;;;18.00;99.90;;;;;;5072693;28;20061;-80
2022/06/08 11:42:35;;;;;;;9.67;7.17;;;18.00;99.90;;;;;;5055152;28;20110;-80
2022/06/08 11:45:17;;;;;;;10.50;7.93;;;18.10;99.90;;;;;;5088461;28;20043;-83
2022/06/08 11:47:49;;;;;;;12.90;7.47;;;18.20;99.90;;;;;;5091081;28;20125;-77
2022/06/08 11:50:22;;;;;;;10.90;7.17;;;18.50;99.90;;;;;;5093363;28;20044;-82
2022/06/08 11:52:58;;;;;;;12.53;7.87;;;18.60;99.90;;;;;;5092914;28;20075;-82
2022/06/08 11:55:25;;;;;;;9.67;7.83;;;19.10;99.90;;;;;;5075140;28;20052;-81
2022/06/08 11:57:57;;;;;;;11.93;8.03;;;19.10;99.90;;;;;;5075167;28;20047;-81
2022/06/08 12:00:29;;;;;;;9.40;7.23;;;19.30;99.90;;;;;;5092478;28;20044;-76
2022/06/08 12:03:01;;;;;;;9.93;6.93;;;19.40;99.90;;;;;;5075165;28;20052;-80
2022/06/08 12:05:31;;;;;;;12.90;7.40;;;19.50;99.90;;;;;;5092879;28;20056;-79
2022/06/08 12:08:25;;;;;;;12.27;6.87;;;19.60;99.90;;;;;;5092928;28;20048;-75
2022/06/08 12:10:51;;;;;;;10.03;6.20;;;;;;;;;;5092273;28;20040;-74
2022/06/08 12:13:22;;;;;;;9.73;6.23;;;;;;;;;;5095913;28;20483;-82
2022/06/08 12:15:56;;;;;;;9.23;5.77;;;;;;;;;;5096933;28;20059;-82
2022/06/08 12:18:22;;;;;;;11.95;5.20;;;20.20;99.90;;;;;;5096965;28;20051;-81
2022/06/08 12:20:48;;;;;;;14.00;6.40;;;20.20;99.90;;;;;;5096552;28;20044;-81
2022/06/08 12:23:14;;;;;;;11.10;5.73;;;20.20;99.90;;;;;;5079005;28;20048;-81
2022/06/08 12:25:40;;;;;;;8.90;5.83;;;20.10;99.90;;;;;;5096403;28;20559;-81
2022/06/08 12:28:21;;;;;;;11.30;6.20;;;20.00;99.90;;;;;;5096598;28;20380;-75
2022/06/08 12:30:50;;;;;;;8.90;5.40;;;20.00;99.90;;;;;;5096562;28;20067;-77
2022/06/08 12:33:18;;;;;;;10.43;5.70;;;19.90;99.90;;;;;;5096889;28;20078;-76
2022/06/08 12:36:17;;;;;;;9.97;5.30;;;19.90;99.90;;;;;;5096236;28;20415;-77
2022/06/08 12:39:02;;;;;;;9.97;5.73;;;19.80;99.90;;;;;;5096207;28;20103;-77
2022/06/08 12:41:38;;;;;;;8.45;4.25;;;19.70;99.90;;;;;;5096394;28;20055;-77
2022/06/08 12:44:07;;;;;;;10.07;5.40;;;19.60;99.90;;;;;;5096519;28;20056;-80
2022/06/08 12:46:35;;;;;;;11.33;6.57;;;19.50;99.90;;;;;;5078230;28;20399;-78
2022/06/08 12:49:16;;;;;;;11.27;9.23;;;19.30;99.90;;;;;;5096270;28;20036;-80
2022/06/08 12:51:52;;;;;;;14.37;10.97;;;19.10;99.90;;;;;;5095753;28;20044;-77
2022/06/08 12:54:21;;;;;;;16.13;13.17;;;18.80;99.90;;;;;;5096180;28;20090;-76
2022/06/08 12:56:49;;;;;;;18.10;16.20;;;18.60;99.90;;;;;;5095380;28;20135;-78
2022/06/08 12:59:16;;;;;;;18.53;16.73;;;18.40;99.90;;;;;;5095397;28;20032;-80
2022/06/08 13:01:44;;;;;;;22.07;19.33;;;18.30;99.90;;;;;;5095119;28;20076;-79
2022/06/08 13:04:16;;;;;;;22.97;19.57;;;18.20;99.90;;;;;;5095962;28;20396;-78
2022/06/08 13:06:42;;;;;;;25.53;21.47;;;18.10;99.90;;;;;;5095824;28;20054;-78
2022/06/08 13:09:13;;;;;;;24.80;22.40;;;18.10;99.90;;;;;;5083314;28;20041;-77
2022/06/08 13:11:42;;;;;;;24.17;21.87;;;18.00;99.90;;;;;;5089742;28;20420;-78
2022/06/08 13:14:14;;;;;;;24.60;22.27;;;17.90;99.90;;;;;;5085741;28;20052;-78
2022/06/08 13:16:40;;;;;;;23.27;20.80;;;17.90;99.90;;;;;;5056586;28;20044;-79
2022/06/08 13:19:05;;;;;;;21.93;20.07;;;17.90;99.90;;;;;;5089411;28;20044;-79